Time;durP1;ratioP1;P1;durP2;ratioP2;P2;SDS_P1;SDS_P2;PMS_P1;PMS_P2;Temp;Humidity;BMP_temperature;BMP_pressure;BME280_temperature;BME280_humidity;BME280_pressure;Samples;Min_cycle;Max_cycle;Signal;HPM_P1;HPM_P2
2022/07/05 00:02:06;;;;;;;0.00;0.00;;;;;;;17.08;54.47;101826.56;7362394;19;20612;-61
2022/07/05 00:04:32;;;;;;;0.10;0.10;;;;;;;17.06;54.64;101820.47;7366808;19;20017;-62
2022/07/05 00:09:41;;;;;;;0.00;0.00;;;;;;;17.03;54.73;101820.56;7360895;19;20025;-61
2022/07/05 00:12:07;;;;;;;0.00;0.00;;;;;;;17.00;54.59;101813.63;7362459;19;20002;-62
2022/07/05 00:14:33;;;;;;;0.00;0.00;;;;;;;16.98;54.97;101811.91;7365276;19;20022;-62
2022/07/05 00:16:58;;;;;;;0.00;0.00;;;;;;;16.95;54.99;101809.41;7368047;19;20461;-62
2022/07/05 00:19:24;;;;;;;0.00;0.00;;;;;;;16.97;55.12;101810.19;7372883;19;20010;-62
2022/07/05 00:21:49;;;;;;;0.00;0.00;;;;;;;16.96;54.78;101819.03;7372120;19;20010;-62
2022/07/05 00:24:15;;;;;;;0.00;0.00;;;;;;;16.95;54.94;101822.59;7370309;19;20010;-61
2022/07/05 00:26:40;;;;;;;0.00;0.00;;;;;;;16.95;55.22;101827.88;7371787;19;20122;-62
2022/07/05 00:29:06;;;;;;;0.00;0.00;;;;;;;16.94;55.47;101821.72;7373325;19;20029;-62
2022/07/05 00:31:31;;;;;;;0.00;0.00;;;;;;;16.95;55.35;101822.59;7371756;19;20011;-62
2022/07/05 00:33:57;;;;;;;0.00;0.00;;;;;;;16.93;55.18;101820.00;7372939;19;20041;-62
2022/07/05 00:36:22;;;;;;;0.00;0.00;;;;;;;16.94;55.45;101831.44;7367667;19;20017;-61
2022/07/05 00:38:48;;;;;;;0.10;0.10;;;;;;;16.95;55.46;101827.88;7365094;19;20572;-62
2022/07/05 00:41:13;;;;;;;0.00;0.00;;;;;;;16.94;55.47;101827.00;7361020;19;20039;-62
2022/07/05 00:43:56;;;;;;;0.00;0.00;;;;;;;16.96;54.71;101824.31;7363339;19;20007;-64
2022/07/05 00:46:22;;;;;;;0.00;0.00;;;;;;;16.80;55.61;101803.69;7364389;19;20074;-62
2022/07/05 00:48:48;;;;;;;0.00;0.00;;;;;;;16.91;55.91;101810.41;7363461;19;20779;-62
2022/07/05 00:51:14;;;;;;;0.00;0.00;;;;;;;16.77;55.81;101790.56;7363435;19;20015;-62
2022/07/05 00:53:40;;;;;;;0.00;0.00;;;;;;;16.88;56.25;101815.75;7363579;19;20039;-62
2022/07/05 00:56:06;;;;;;;0.03;0.03;;;;;;;16.82;56.34;101811.53;7360375;19;20074;-62
2022/07/05 00:58:33;;;;;;;0.00;0.00;;;;;;;16.81;56.72;101810.69;7359301;19;22180;-62
2022/07/05 01:01:01;;;;;;;0.00;0.00;;;;;;;16.80;56.99;101814.22;7362962;19;20017;-63
2022/07/05 01:03:27;;;;;;;0.08;0.08;;;;;;;16.67;56.70;101788.25;7362294;19;20773;-62
2022/07/05 01:05:54;;;;;;;0.00;0.00;;;;;;;16.78;57.36;101810.78;7364162;19;20013;-62
2022/07/05 01:08:21;;;;;;;0.00;0.00;;;;;;;16.66;57.10;101795.28;7360226;19;20015;-62
2022/07/05 01:10:46;;;;;;;0.00;0.00;;;;;;;16.76;57.56;101812.59;7365791;19;20018;-62
2022/07/05 01:13:12;;;;;;;0.00;0.00;;;;;;;16.75;57.86;101821.44;7362750;19;20832;-62
2022/07/05 01:15:39;;;;;;;0.00;0.00;;;;;;;16.68;57.56;101798.75;7365952;19;20026;-62
2022/07/05 01:18:05;;;;;;;0.00;0.00;;;;;;;16.76;59.24;101812.59;7364779;19;20023;-62
2022/07/05 01:20:31;;;;;;;0.00;0.00;;;;;;;16.74;59.12;101819.69;7364468;19;20712;-62
2022/07/05 01:22:59;;;;;;;0.00;0.00;;;;;;;16.71;59.70;101819.78;7364298;19;20146;-62
2022/07/05 01:25:27;;;;;;;0.00;0.00;;;;;;;16.69;59.64;101811.03;7362009;19;20006;-63
2022/07/05 01:27:53;;;;;;;0.00;0.00;;;;;;;16.65;60.69;101814.66;7365507;19;20015;-63
2022/07/05 01:30:19;;;;;;;0.00;0.00;;;;;;;16.52;61.72;101802.75;7362761;19;20665;-63
2022/07/05 01:32:45;;;;;;;0.00;0.00;;;;;;;16.45;61.70;101790.66;7368449;19;20021;-63
2022/07/05 01:35:12;;;;;;;0.00;0.00;;;;;;;16.49;61.95;101810.78;7366874;19;20015;-63
2022/07/05 01:37:39;;;;;;;0.00;0.00;;;;;;;16.44;62.57;101804.78;7365746;19;20561;-63
2022/07/05 01:40:05;;;;;;;0.00;0.00;;;;;;;16.38;62.05;101810.22;7368082;19;20117;-63
2022/07/05 01:42:31;;;;;;;0.00;0.00;;;;;;;16.30;62.60;101800.75;7362178;19;20021;-63
2022/07/05 01:44:56;;;;;;;0.00;0.00;;;;;;;16.24;62.15;101803.56;7364276;19;20006;-62
2022/07/05 01:47:22;;;;;;;0.00;0.00;;;;;;;16.19;62.61;101800.19;7367097;19;20386;-63
2022/07/05 01:49:50;;;;;;;0.00;0.00;;;;;;;16.16;62.42;101796.78;7366247;19;20027;-63
2022/07/05 01:52:20;;;;;;;0.00;0.00;;;;;;;16.14;62.54;101796.84;7366980;19;20462;-63
2022/07/05 01:54:46;;;;;;;0.00;0.00;;;;;;;16.05;62.70;101781.28;7365324;19;20031;-63
2022/07/05 01:57:12;;;;;;;0.00;0.00;;;;;;;16.06;63.58;101799.66;7365704;19;20002;-63
2022/07/05 01:59:37;;;;;;;0.00;0.00;;;;;;;16.04;63.51;101790.94;7352973;19;20018;-63
2022/07/05 02:02:05;;;;;;;0.00;0.00;;;;;;;16.01;63.53;101782.25;7351477;19;20006;-63
2022/07/05 02:04:32;;;;;;;0.00;0.00;;;;;;;15.98;63.67;101791.13;7360234;19;20034;-63
2022/07/05 02:06:58;;;;;;;0.00;0.00;;;;;;;15.94;63.67;101778.09;7364652;19;20030;-63
2022/07/05 02:09:23;;;;;;;0.00;0.00;;;;;;;15.82;62.93;101761.72;7362099;19;20042;-63
2022/07/05 02:11:49;;;;;;;0.00;0.00;;;;;;;15.88;64.17;101775.63;7361286;19;20039;-63
2022/07/05 02:14:14;;;;;;;0.00;0.00;;;;;;;15.85;63.95;101783.59;7365248;19;20429;-63
2022/07/05 02:16:40;;;;;;;0.00;0.00;;;;;;;15.82;64.22;101784.56;7364796;19;20023;-63
2022/07/05 02:19:06;;;;;;;0.00;0.00;;;;;;;15.77;64.19;101774.16;7365440;19;20070;-63
2022/07/05 02:21:31;;;;;;;0.00;0.00;;;;;;;15.77;65.06;101779.41;7363120;19;20013;-63
2022/07/05 02:23:57;;;;;;;0.00;0.00;;;;;;;15.77;64.91;101775.91;7363927;19;20006;-62
2022/07/05 02:26:22;;;;;;;0.00;0.00;;;;;;;15.73;65.02;101775.13;7362499;19;20462;-63
2022/07/05 02:28:49;;;;;;;0.00;0.00;;;;;;;15.76;64.90;101775.06;7362525;19;20010;-63
2022/07/05 02:31:16;;;;;;;0.00;0.00;;;;;;;15.78;64.82;101782.91;7362990;19;20010;-63
2022/07/05 02:33:41;;;;;;;0.00;0.00;;;;;;;15.78;64.94;101783.78;7361065;19;20403;-63
2022/07/05 02:36:11;;;;;;;0.00;0.00;;;;;;;15.77;65.16;101774.16;7361603;19;20097;-63
2022/07/05 02:38:36;;;;;;;0.00;0.00;;;;;;;15.70;64.92;101758.53;7363380;19;20011;-63
2022/07/05 02:41:05;;;;;;;0.00;0.00;;;;;;;15.75;63.83;101765.41;7362956;19;20078;-63
2022/07/05 02:43:32;;;;;;;0.00;0.00;;;;;;;15.81;65.28;101767.91;7361647;19;20010;-63
2022/07/05 02:45:57;;;;;;;0.00;0.00;;;;;;;15.82;65.24;101769.63;7363152;19;20477;-63
2022/07/05 02:48:22;;;;;;;0.00;0.00;;;;;;;15.80;65.33;101771.41;7363031;19;20014;-63
2022/07/05 02:50:48;;;;;;;0.00;0.00;;;;;;;15.82;65.64;101766.97;7361372;19;20010;-63
2022/07/05 02:53:13;;;;;;;0.00;0.00;;;;;;;15.84;65.78;101774.84;7363857;19;20025;-62
2022/07/05 02:55:39;;;;;;;0.00;0.00;;;;;;;15.85;65.97;101770.44;7361716;19;20486;-62
2022/07/05 02:58:04;;;;;;;0.00;0.00;;;;;;;15.85;65.97;101770.44;7358776;19;20480;-63
2022/07/05 03:00:29;;;;;;;0.00;0.00;;;;;;;15.86;65.63;101780.06;7357548;19;20003;-63
2022/07/05 03:02:55;;;;;;;0.00;0.00;;;;;;;15.86;66.53;101766.88;7362776;19;20033;-63
2022/07/05 03:05:21;;;;;;;0.00;0.00;;;;;;;15.87;66.45;101776.53;7354137;19;20011;-62
2022/07/05 03:07:46;;;;;;;0.00;0.00;;;;;;;15.88;66.09;101773.00;7359158;19;20810;-62
2022/07/05 03:10:12;;;;;;;0.00;0.00;;;;;;;15.88;66.82;101773.00;7365155;19;20461;-63
2022/07/05 03:12:37;;;;;;;0.10;0.10;;;;;;;15.88;66.44;101775.63;7359747;19;20018;-62
2022/07/05 03:15:03;;;;;;;0.00;0.00;;;;;;;15.88;66.38;101773.00;7364129;19;20644;-63
2022/07/05 03:17:28;;;;;;;0.00;0.00;;;;;;;15.88;67.05;101778.25;7361684;19;20446;-63
2022/07/05 03:19:54;;;;;;;0.00;0.00;;;;;;;15.88;67.16;101775.63;7351966;19;20007;-63
2022/07/05 03:22:19;;;;;;;0.00;0.00;;;;;;;15.88;66.90;101775.63;7363588;19;20018;-62
2022/07/05 03:24:44;;;;;;;0.00;0.00;;;;;;;15.87;66.73;101781.81;7359403;19;20044;-63
2022/07/05 03:27:10;;;;;;;0.00;0.00;;;;;;;15.87;67.26;101774.75;7364677;19;20123;-63
2022/07/05 03:29:35;;;;;;;0.00;0.00;;;;;;;15.83;67.31;101778.38;7358856;19;20017;-62
2022/07/05 03:32:01;;;;;;;0.00;0.00;;;;;;;15.87;66.92;101784.44;7364418;19;20114;-63
2022/07/05 03:34:26;;;;;;;0.00;0.00;;;;;;;15.86;67.46;101780.91;7363378;19;20118;-62
2022/07/05 03:36:52;;;;;;;0.00;0.00;;;;;;;15.86;67.71;101785.31;7364366;19;20457;-63
2022/07/05 03:39:18;;;;;;;0.00;0.00;;;;;;;15.86;66.94;101780.06;7361920;19;20011;-63
2022/07/05 03:41:43;;;;;;;0.00;0.00;;;;;;;15.85;67.78;101776.56;7363917;19;20015;-62
2022/07/05 03:44:08;;;;;;;0.00;0.00;;;;;;;15.70;67.17;101764.66;7359754;19;20367;-63
2022/07/05 03:46:34;;;;;;;0.03;0.03;;;;;;;15.77;66.38;101770.66;7365698;19;20017;-63
2022/07/05 03:48:59;;;;;;;0.00;0.00;;;;;;;15.87;67.54;101787.94;7358900;19;20070;-62
2022/07/05 03:51:25;;;;;;;0.00;0.00;;;;;;;15.89;67.92;101795.78;7362920;19;20015;-62
2022/07/05 03:53:50;;;;;;;0.10;0.10;;;;;;;15.90;67.94;101797.50;7362450;19;20014;-63
2022/07/05 03:56:19;;;;;;;0.00;0.00;;;;;;;15.90;67.88;101793.09;7363271;19;20010;-63
2022/07/05 03:58:47;;;;;;;0.03;0.03;;;;;;;15.93;67.96;101797.44;7361397;19;20014;-62
2022/07/05 04:01:12;;;;;;;0.00;0.00;;;;;;;15.93;67.97;101802.69;7362450;19;20355;-63
2022/07/05 04:03:37;;;;;;;0.00;0.00;;;;;;;15.95;68.24;101806.16;7360438;19;20018;-63
2022/07/05 04:06:03;;;;;;;0.00;0.00;;;;;;;15.97;68.25;101799.09;7364084;19;20032;-62
2022/07/05 04:08:28;;;;;;;0.03;0.03;;;;;;;16.00;68.42;101798.97;7361027;19;20611;-62
2022/07/05 04:10:54;;;;;;;0.00;0.00;;;;;;;15.81;68.18;101767.91;7362939;19;20025;-63
2022/07/05 04:13:19;;;;;;;0.00;0.00;;;;;;;16.04;67.94;101806.75;7361454;19;20033;-63
2022/07/05 04:15:45;;;;;;;0.00;0.00;;;;;;;16.06;68.63;101809.34;7360810;19;20050;-63
2022/07/05 04:18:10;;;;;;;0.00;0.00;;;;;;;16.08;68.08;101807.56;7361760;19;20049;-63
2022/07/05 04:20:35;;;;;;;0.10;0.10;;;;;;;16.09;68.19;101811.91;7363352;19;20007;-63
2022/07/05 04:23:01;;;;;;;0.00;0.00;;;;;;;16.10;68.04;101811.00;7362520;19;20010;-62
2022/07/05 04:25:26;;;;;;;0.00;0.00;;;;;;;16.13;68.71;101805.66;7360981;19;20007;-63
2022/07/05 04:27:55;;;;;;;0.00;0.00;;;;;;;16.15;68.82;101814.38;7359753;19;20033;-62
2022/07/05 04:30:23;;;;;;;0.00;0.00;;;;;;;16.05;68.91;101791.81;7362705;19;20458;-63
2022/07/05 04:32:48;;;;;;;0.00;0.00;;;;;;;16.17;68.83;101809.94;7360608;19;20011;-62
2022/07/05 04:35:14;;;;;;;0.00;0.00;;;;;;;16.19;68.86;101813.38;7361541;19;20098;-63
2022/07/05 04:37:40;;;;;;;0.00;0.00;;;;;;;16.21;68.51;101819.44;7367289;19;20021;-63
2022/07/05 04:40:07;;;;;;;0.00;0.00;;;;;;;16.22;69.08;101825.59;7368206;19;20142;-63
2022/07/05 04:42:33;;;;;;;0.00;0.00;;;;;;;16.24;68.73;101824.66;7368821;19;20581;-62
2022/07/05 04:44:59;;;;;;;0.00;0.00;;;;;;;16.16;68.85;101815.22;7367399;19;20021;-63
2022/07/05 04:47:27;;;;;;;0.00;0.00;;;;;;;16.26;68.71;101817.56;7367600;19;20006;-63
2022/07/05 04:49:53;;;;;;;0.00;0.00;;;;;;;16.27;69.30;101819.31;7369067;19;20006;-62
2022/07/05 04:52:19;;;;;;;0.00;0.00;;;;;;;16.28;68.88;101828.94;7367815;19;20006;-63
2022/07/05 04:54:45;;;;;;;0.00;0.00;;;;;;;16.29;69.06;101830.66;7368829;19;20030;-62
2022/07/05 04:57:10;;;;;;;0.05;0.05;;;;;;;16.30;69.08;101829.75;7364184;19;20011;-63
2022/07/05 04:59:36;;;;;;;0.00;0.00;;;;;;;16.31;68.74;101836.75;7366404;19;20013;-63
2022/07/05 05:02:02;;;;;;;0.00;0.00;;;;;;;16.33;69.23;101839.34;7367467;19;20037;-63
2022/07/05 05:04:27;;;;;;;0.00;0.00;;;;;;;16.23;68.93;101828.19;7366557;19;20010;-62
2022/07/05 05:06:53;;;;;;;0.00;0.00;;;;;;;16.40;69.05;101850.56;7368111;19;20821;-63
2022/07/05 05:09:18;;;;;;;0.10;0.10;;;;;;;16.41;69.08;101847.03;7365769;19;20010;-63
2022/07/05 05:11:43;;;;;;;0.00;0.00;;;;;;;16.42;68.86;101854.03;7367255;19;20013;-63
2022/07/05 05:14:09;;;;;;;0.00;0.00;;;;;;;16.47;68.94;101858.25;7365207;19;20054;-63
2022/07/05 05:16:34;;;;;;;0.00;0.00;;;;;;;16.48;68.87;101861.78;7367955;19;20720;-63
2022/07/05 05:19:00;;;;;;;0.00;0.00;;;;;;;16.53;69.24;101862.50;7367830;19;20022;-63
2022/07/05 05:21:25;;;;;;;0.00;0.00;;;;;;;16.57;68.49;101858.84;7366364;19;20010;-62
2022/07/05 05:23:50;;;;;;;0.00;0.00;;;;;;;16.61;69.01;101865.78;7364797;19;20473;-62
2022/07/05 05:26:16;;;;;;;0.00;0.00;;;;;;;16.64;68.76;101868.34;7365463;19;20030;-63
2022/07/05 05:28:41;;;;;;;0.03;0.03;;;;;;;16.66;68.99;101870.91;7363003;19;20010;-62
2022/07/05 05:31:07;;;;;;;0.10;0.10;;;;;;;16.70;68.96;101870.78;7364588;19;20803;-62
2022/07/05 05:33:33;;;;;;;0.00;0.00;;;;;;;16.74;68.55;101877.72;7368172;19;20457;-63
2022/07/05 05:36:00;;;;;;;0.00;0.00;;;;;;;16.76;68.67;101878.53;7365058;19;20037;-63
2022/07/05 05:38:25;;;;;;;0.00;0.00;;;;;;;16.77;68.70;101887.31;7366867;19;20454;-63
2022/07/05 05:40:50;;;;;;;0.00;0.00;;;;;;;16.80;68.76;101893.38;7364638;19;20043;-63
2022/07/05 05:43:16;;;;;;;0.00;0.00;;;;;;;16.82;68.15;101891.53;7367253;19;20014;-63
2022/07/05 05:45:41;;;;;;;0.00;0.00;;;;;;;16.86;68.55;101890.53;7366211;19;20006;-63
2022/07/05 05:48:07;;;;;;;0.00;0.00;;;;;;;16.88;68.37;101889.63;7365448;19;20007;-63
2022/07/05 05:50:40;;;;;;;0.03;0.03;;;;;;;16.92;67.88;101901.81;7365566;19;20109;-62
2022/07/05 05:53:06;;;;;;;0.00;0.00;;;;;;;16.85;67.69;101891.47;7367716;19;20010;-63
2022/07/05 05:55:32;;;;;;;0.00;0.00;;;;;;;16.94;68.23;101910.59;7364972;19;22044;-63
2022/07/05 05:58:12;;;;;;;0.00;0.00;;;;;;;17.00;66.89;101903.34;7362539;19;20014;-63
2022/07/05 06:00:38;;;;;;;0.00;0.00;;;;;;;16.98;68.15;101914.84;7364505;19;20034;-63
2022/07/05 06:03:04;;;;;;;0.00;0.00;;;;;;;17.03;67.62;101905.00;7362813;19;20023;-63
2022/07/05 06:05:29;;;;;;;0.00;0.00;;;;;;;17.04;67.68;101912.91;7362972;19;20010;-62
2022/07/05 06:07:55;;;;;;;0.00;0.00;;;;;;;17.08;67.61;101913.63;7363520;19;20462;-63
2022/07/05 06:10:26;;;;;;;0.10;0.10;;;;;;;17.14;67.30;101917.91;7364154;19;20017;-63
2022/07/05 06:12:53;;;;;;;0.10;0.10;;;;;;;17.15;67.71;101917.84;7363492;19;20002;-63
2022/07/05 06:15:19;;;;;;;0.00;0.00;;;;;;;17.18;67.64;101920.38;7363819;19;20019;-63
2022/07/05 06:17:45;;;;;;;0.00;0.00;;;;;;;17.18;67.74;101920.38;7363676;19;20006;-63
2022/07/05 06:20:17;;;;;;;0.00;0.00;;;;;;;17.27;67.16;101930.66;7361838;19;20021;-63
2022/07/05 06:22:43;;;;;;;0.00;0.00;;;;;;;17.30;67.81;101937.63;7363223;19;20007;-63
2022/07/05 06:25:08;;;;;;;0.00;0.00;;;;;;;17.32;67.51;101943.72;7363513;19;20045;-63
2022/07/05 06:27:45;;;;;;;0.00;0.00;;;;;;;17.38;67.04;101944.38;7361119;19;20020;-63
2022/07/05 06:30:14;;;;;;;0.00;0.00;;;;;;;17.36;67.23;101943.56;7363304;19;20734;-63
2022/07/05 06:32:39;;;;;;;0.00;0.00;;;;;;;17.36;67.31;101945.34;7359880;19;20007;-63
2022/07/05 06:35:06;;;;;;;0.00;0.00;;;;;;;17.37;67.29;101942.66;7361755;19;20018;-63
2022/07/05 06:37:46;;;;;;;0.00;0.00;;;;;;;17.37;65.77;101942.66;7363637;19;20580;-62
2022/07/05 06:40:23;;;;;;;0.10;0.10;;;;;;;17.39;67.65;101950.56;7359520;19;20553;-63
2022/07/05 06:42:49;;;;;;;0.00;0.00;;;;;;;17.41;67.66;101947.84;7362477;19;20017;-63
2022/07/05 06:45:15;;;;;;;0.00;0.00;;;;;;;17.43;67.43;101951.28;7363704;19;20407;-63
2022/07/05 06:47:41;;;;;;;0.00;0.00;;;;;;;17.45;66.93;101954.78;7365871;19;20010;-62
2022/07/05 06:50:08;;;;;;;0.00;0.00;;;;;;;17.48;67.24;101958.16;7363882;19;20086;-63
2022/07/05 06:52:34;;;;;;;0.00;0.00;;;;;;;17.49;67.55;101957.28;7363420;19;20010;-62
2022/07/05 06:55:00;;;;;;;0.10;0.10;;;;;;;17.51;67.54;101954.56;7363633;19;20010;-63
2022/07/05 06:57:26;;;;;;;0.00;0.00;;;;;;;17.53;67.39;101958.00;7361517;19;20339;-63
2022/07/05 06:59:51;;;;;;;0.00;0.00;;;;;;;17.53;67.46;101960.66;7357304;19;20050;-63
2022/07/05 07:02:18;;;;;;;0.00;0.00;;;;;;;17.43;67.53;101946.00;7360294;19;20007;-63
2022/07/05 07:04:44;;;;;;;0.00;0.00;;;;;;;17.57;67.13;101971.09;7357547;19;20041;-63
2022/07/05 07:10:01;;;;;;;0.10;0.10;;;;;;;17.72;66.67;101972.38;7354574;19;20313;-62
2022/07/05 07:12:26;;;;;;;0.00;0.00;;;;;;;17.76;67.15;101965.25;7363357;19;20021;-63
2022/07/05 07:14:52;;;;;;;0.00;0.00;;;;;;;17.81;66.93;101964.19;7363750;19;20021;-63
2022/07/05 07:17:17;;;;;;;0.10;0.10;;;;;;;17.87;66.79;101963.97;7360894;19;20024;-63
2022/07/05 07:19:43;;;;;;;0.00;0.00;;;;;;;17.83;66.86;101940.34;7363736;19;20032;-63
2022/07/05 07:22:08;;;;;;;0.00;0.00;;;;;;;18.02;66.25;101964.38;7364831;19;20535;-63
2022/07/05 07:24:34;;;;;;;0.10;0.10;;;;;;;18.07;66.10;101965.09;7362437;19;20011;-63
2022/07/05 07:27:06;;;;;;;0.00;0.00;;;;;;;18.13;65.64;101965.75;7354921;19;20122;-63
2022/07/05 07:29:32;;;;;;;0.10;0.10;;;;;;;18.19;65.38;101972.59;7328187;19;20021;-63
2022/07/05 07:31:59;;;;;;;0.00;0.00;;;;;;;18.22;65.39;101974.28;7344565;19;20013;-63
2022/07/05 07:34:25;;;;;;;0.10;0.10;;;;;;;18.21;65.62;101969.94;7354744;19;20444;-63
2022/07/05 07:36:51;;;;;;;0.00;0.00;;;;;;;18.19;65.70;101964.66;7364916;19;20014;-63
2022/07/05 07:39:16;;;;;;;0.00;0.00;;;;;;;18.34;66.13;101985.28;7360428;19;20770;-63
2022/07/05 07:41:42;;;;;;;0.03;0.03;;;;;;;18.39;65.80;101980.72;7363068;19;20465;-63
2022/07/05 07:44:07;;;;;;;0.10;0.10;;;;;;;18.44;65.37;101980.56;7362258;19;20630;-63
2022/07/05 07:46:33;;;;;;;0.00;0.00;;;;;;;18.51;65.63;101989.16;7363751;19;20070;-62
2022/07/05 07:48:58;;;;;;;0.00;0.00;;;;;;;18.58;64.77;101988.00;7362100;19;20014;-63
2022/07/05 07:51:24;;;;;;;0.00;0.00;;;;;;;18.63;64.80;101988.72;7363470;19;20091;-63
2022/07/05 07:53:50;;;;;;;0.00;0.00;;;;;;;18.68;64.05;101986.78;7363026;19;20011;-63
2022/07/05 07:56:16;;;;;;;0.00;0.00;;;;;;;18.74;64.59;101978.63;7359630;19;20041;-63
2022/07/05 07:58:41;;;;;;;0.00;0.00;;;;;;;18.77;64.24;101985.59;7363476;19;20138;-63
2022/07/05 08:01:10;;;;;;;0.00;0.00;;;;;;;18.87;64.01;101985.22;7361005;19;20018;-63
2022/07/05 08:03:36;;;;;;;0.00;0.00;;;;;;;18.93;64.15;101995.56;7361994;19;20512;-62
2022/07/05 08:06:02;;;;;;;0.10;0.10;;;;;;;19.01;63.77;101992.66;7362833;19;20030;-63
2022/07/05 08:08:27;;;;;;;0.10;0.10;;;;;;;19.08;63.59;101998.56;7361662;19;20058;-62
2022/07/05 08:10:53;;;;;;;0.10;0.10;;;;;;;19.14;63.38;102000.97;7362148;19;20134;-63
2022/07/05 08:13:18;;;;;;;0.08;0.08;;;;;;;19.16;62.64;101993.84;7368010;19;20025;-63
2022/07/05 08:15:44;;;;;;;0.00;0.00;;;;;;;19.26;62.59;102003.19;7366429;19;20366;-63
2022/07/05 08:23:37;;;;;;;0.10;0.10;;;;;;;19.40;62.87;102005.28;7366485;19;20014;-62
2022/07/05 08:26:02;;;;;;;0.00;0.00;;;;;;;19.40;62.35;101998.19;7367919;19;20010;-62
2022/07/05 08:28:28;;;;;;;0.10;0.10;;;;;;;19.50;62.00;102006.63;7366826;19;20641;-63
2022/07/05 08:30:53;;;;;;;0.10;0.10;;;;;;;19.54;61.84;102002.97;7358289;19;20636;-62
2022/07/05 08:33:19;;;;;;;0.00;0.00;;;;;;;19.58;61.71;102006.34;7365602;19;20475;-63
2022/07/05 08:35:44;;;;;;;0.00;0.00;;;;;;;19.60;61.50;102007.19;7368806;19;20025;-62
2022/07/05 08:38:12;;;;;;;0.00;0.00;;;;;;;19.52;61.73;102003.97;7368220;19;20014;-62
2022/07/05 08:40:41;;;;;;;0.03;0.03;;;;;;;19.64;61.88;102024.69;7368588;19;20054;-63
2022/07/05 08:43:07;;;;;;;0.08;0.08;;;;;;;19.64;61.52;102030.00;7367145;19;20010;-63
2022/07/05 08:45:33;;;;;;;0.10;0.10;;;;;;;19.68;61.20;102026.31;7368668;19;20024;-63
2022/07/05 08:48:00;;;;;;;0.00;0.00;;;;;;;19.62;61.46;102013.31;7365833;19;20081;-63
2022/07/05 08:50:27;;;;;;;0.00;0.00;;;;;;;19.75;61.20;102035.72;7370348;19;20457;-63
2022/07/05 08:52:53;;;;;;;0.10;0.10;;;;;;;19.75;61.27;102027.78;7369174;19;20027;-62
2022/07/05 08:55:19;;;;;;;0.00;0.00;;;;;;;19.82;60.97;102034.56;7368468;19;20651;-62
2022/07/05 08:57:45;;;;;;;0.00;0.00;;;;;;;19.84;61.01;102027.41;7365464;19;20830;-62
2022/07/05 09:00:11;;;;;;;0.10;0.10;;;;;;;19.89;60.50;102041.34;7368772;19;20073;-62
2022/07/05 09:02:37;;;;;;;0.00;0.00;;;;;;;19.94;60.25;102038.50;7367888;19;20024;-63
2022/07/05 09:05:04;;;;;;;0.00;0.00;;;;;;;20.02;59.68;102047.03;7367437;19;20014;-63
2022/07/05 09:07:32;;;;;;;0.00;0.00;;;;;;;20.06;59.74;102042.44;7366381;19;20045;-62
2022/07/05 09:10:02;;;;;;;0.10;0.10;;;;;;;20.11;60.08;102040.47;7367203;19;20390;-62
2022/07/05 09:12:28;;;;;;;0.00;0.00;;;;;;;20.10;59.60;102029.00;7369060;19;20533;-63
2022/07/05 09:14:55;;;;;;;0.10;0.10;;;;;;;20.18;60.02;102036.66;7367225;19;20018;-63
2022/07/05 09:17:21;;;;;;;0.08;0.08;;;;;;;20.28;59.77;102043.28;7370806;19;20014;-63
2022/07/05 09:20:12;;;;;;;0.10;0.10;;;;;;;20.47;60.34;102033.63;7367134;19;20023;-63
2022/07/05 09:22:54;;;;;;;0.10;0.10;;;;;;;20.59;59.92;102042.88;7262937;19;2004375;-62
2022/07/05 09:25:20;;;;;;;0.00;0.00;;;;;;;20.65;59.52;102041.75;7369154;19;20033;-62
2022/07/05 09:28:00;;;;;;;0.00;0.00;;;;;;;20.76;58.63;102047.44;7367290;19;20470;-63
2022/07/05 09:30:31;;;;;;;0.10;0.10;;;;;;;20.83;58.80;102046.22;7369460;19;20421;-63
2022/07/05 09:33:00;;;;;;;0.05;0.05;;;;;;;20.90;58.34;102057.47;7366408;19;20019;-63
2022/07/05 09:35:26;;;;;;;0.00;0.00;;;;;;;20.80;58.45;102035.75;7366804;19;20018;-63
2022/07/05 09:37:51;;;;;;;0.08;0.08;;;;;;;21.01;58.34;102056.97;7367411;19;20018;-63
2022/07/05 09:40:17;;;;;;;0.10;0.10;;;;;;;21.11;58.24;102052.97;7365975;19;20014;-63
2022/07/05 09:42:42;;;;;;;0.03;0.03;;;;;;;21.19;57.59;102058.81;7365072;19;20021;-63
2022/07/05 09:45:08;;;;;;;0.03;0.03;;;;;;;21.28;57.17;102058.38;7366196;19;20018;-63
2022/07/05 09:47:33;;;;;;;0.05;0.05;;;;;;;21.29;57.19;102054.81;7369152;19;20010;-63
2022/07/05 09:50:03;;;;;;;0.08;0.08;;;;;;;21.41;56.84;102054.25;7366825;19;20014;-63
2022/07/05 09:52:30;;;;;;;0.00;0.00;;;;;;;21.47;56.45;102064.59;7365320;19;20024;-63
2022/07/05 09:55:10;;;;;;;0.10;0.10;;;;;;;21.55;56.77;102061.59;7367368;19;20473;-63
2022/07/05 09:57:39;;;;;;;0.00;0.00;;;;;;;21.48;56.75;102063.66;7367495;19;20011;-62
2022/07/05 10:00:07;;;;;;;0.10;0.10;;;;;;;21.49;56.51;102069.84;7362811;19;20029;-63
2022/07/05 10:02:39;;;;;;;0.10;0.10;;;;;;;21.52;56.86;102060.88;7367004;19;20015;-63
2022/07/05 10:05:14;;;;;;;0.08;0.08;;;;;;;21.52;56.68;102056.41;7364914;19;20098;-63
2022/07/05 10:07:41;;;;;;;0.10;0.10;;;;;;;21.47;56.85;102069.06;7363549;19;20006;-63
2022/07/05 10:10:08;;;;;;;0.08;0.08;;;;;;;21.46;56.87;102062.03;7354050;19;20106;-63
2022/07/05 10:12:36;;;;;;;0.10;0.10;;;;;;;21.46;56.70;102068.19;7367143;19;20066;-63
2022/07/05 10:15:02;;;;;;;0.03;0.03;;;;;;;21.41;57.01;102064.88;7362481;19;20023;-63
2022/07/05 10:17:34;;;;;;;0.00;0.00;;;;;;;21.35;56.68;102051.91;7368057;19;22240;-63
2022/07/05 10:20:03;;;;;;;0.10;0.10;;;;;;;21.37;56.80;102068.63;7365913;19;20026;-63
2022/07/05 10:22:28;;;;;;;0.00;0.00;;;;;;;21.28;56.72;102061.03;7367122;19;20101;-63
2022/07/05 10:24:54;;;;;;;0.00;0.00;;;;;;;21.31;56.43;102068.91;7364683;19;20090;-63
2022/07/05 10:27:20;;;;;;;0.10;0.10;;;;;;;21.17;56.52;102042.06;7365610;19;20027;-63
2022/07/05 10:29:45;;;;;;;0.10;0.10;;;;;;;21.28;56.63;102063.69;7365449;19;20356;-63
2022/07/05 10:32:14;;;;;;;0.00;0.00;;;;;;;21.26;56.76;102054.94;7366230;19;20023;-63
2022/07/05 10:34:39;;;;;;;0.03;0.03;;;;;;;21.35;56.60;102075.81;7364335;19;20002;-63
2022/07/05 10:37:05;;;;;;;0.00;0.00;;;;;;;21.36;56.00;102077.53;7361483;19;20041;-63
2022/07/05 10:39:31;;;;;;;0.10;0.10;;;;;;;21.35;56.21;102073.16;7365815;19;20081;-63
2022/07/05 10:41:58;;;;;;;0.00;0.00;;;;;;;21.33;56.08;102082.97;7355456;19;20596;-63
2022/07/05 10:44:31;;;;;;;0.10;0.10;;;;;;;21.35;56.53;102081.13;7365007;19;20036;-63
2022/07/05 10:47:12;;;;;;;0.10;0.10;;;;;;;21.36;56.12;102081.97;7364709;19;20448;-63
2022/07/05 10:49:38;;;;;;;0.00;0.00;;;;;;;21.33;56.11;102082.09;7365382;19;20011;-63
2022/07/05 10:52:04;;;;;;;0.10;0.10;;;;;;;21.34;55.93;102079.41;7362626;19;20026;-62
2022/07/05 10:54:31;;;;;;;0.08;0.08;;;;;;;21.37;56.21;102079.25;7365836;19;20007;-63
2022/07/05 10:57:23;;;;;;;0.10;0.10;;;;;;;21.48;56.29;102082.25;7362554;19;20018;-63
2022/07/05 11:00:08;;;;;;;0.00;0.00;;;;;;;21.56;56.15;102083.72;7364934;19;20059;-62
2022/07/05 11:02:33;;;;;;;0.10;0.10;;;;;;;21.53;55.76;102087.38;7365239;19;20129;-62
2022/07/05 11:04:59;;;;;;;0.10;0.10;;;;;;;21.57;56.11;102085.44;7364542;19;20202;-63
2022/07/05 11:08:00;;;;;;;0.10;0.10;;;;;;;21.68;55.98;102096.41;7363244;19;20006;-63
2022/07/05 11:10:25;;;;;;;0.10;0.10;;;;;;;21.55;55.76;102074.03;7263822;19;2004245;-62
2022/07/05 11:12:51;;;;;;;0.00;0.00;;;;;;;21.66;55.95;102090.34;7365666;19;20006;-63
2022/07/05 11:15:17;;;;;;;0.00;0.00;;;;;;;21.73;55.50;102091.75;7363805;19;20014;-62
2022/07/05 11:17:42;;;;;;;0.03;0.03;;;;;;;21.81;55.62;102099.38;7364912;19;20473;-63
2022/07/05 11:20:11;;;;;;;0.03;0.03;;;;;;;21.92;55.98;102092.59;7364243;19;20094;-63
2022/07/05 11:23:01;;;;;;;0.10;0.10;;;;;;;22.10;55.75;102097.94;7364256;19;20026;-63
2022/07/05 11:25:30;;;;;;;0.00;0.00;;;;;;;22.25;56.02;102099.91;7365022;19;20014;-63
2022/07/05 11:28:05;;;;;;;0.10;0.10;;;;;;;22.46;55.36;102104.16;7361930;19;20017;-63
2022/07/05 11:30:45;;;;;;;0.10;0.10;;;;;;;22.61;55.25;102102.53;7366262;19;20756;-63
2022/07/05 11:33:30;;;;;;;0.00;0.00;;;;;;;22.71;54.36;102109.13;7359689;19;20021;-63
2022/07/05 11:35:59;;;;;;;0.00;0.00;;;;;;;22.59;53.92;102092.88;7365002;19;20011;-63